Terminal Aerodrome Forecast
Issued by NWS

Home | Current Version | Previous Version | Text Only | Print | Product List | Glossary On
Versions: 1 2 3 4 5 6 7 8 9 10 11 12 13 14 15 16 17 18 19 20 21
000
FTUS41 KILN 192300
TAFLCK
TAF
KLCK 192329Z 2000/2024 14016G26KT 5SM -SHRA BR OVC018
      TEMPO 2000/2003 3SM -SHRA BR OVC008
     FM200300 17012G24KT P6SM VCSH OVC025
     FM200600 21012G20KT P6SM VCSH OVC015
     FM201500 20018G28KT P6SM VCSH OVC025
     FM202300 26020G28KT P6SM VCSH OVC025=

USA.gov is the U.S. government's official web portal to all federal, state and local government web resources and services.